createdAt,value
2023-02-19T00:01:25.287Z,2.28
2023-02-19T00:03:54.128Z,3.13
2023-02-19T00:06:22.177Z,3.13
2023-02-19T00:08:48.691Z,3.08
2023-02-19T00:11:23.914Z,2.72
2023-02-19T00:13:52.702Z,2.20
2023-02-19T00:16:28.284Z,2.20
2023-02-19T00:18:56.410Z,2.03
2023-02-19T00:21:24.416Z,1.73
2023-02-19T00:23:52.682Z,2.10
2023-02-19T00:26:19.221Z,1.98
2023-02-19T00:28:49.661Z,1.90
2023-02-19T00:31:20.604Z,2.38
2023-02-19T00:33:48.838Z,1.70
2023-02-19T00:36:15.878Z,1.65
2023-02-19T00:38:43.549Z,3.08
2023-02-19T00:41:11.997Z,2.53
2023-02-19T00:43:39.333Z,1.95
2023-02-19T00:46:05.873Z,1.73
2023-02-19T00:48:32.422Z,2.03
2023-02-19T00:50:59.848Z,2.65
2023-02-19T00:53:26.474Z,1.45
2023-02-19T00:55:52.914Z,2.00
2023-02-19T00:58:19.353Z,1.63
2023-02-19T01:00:45.837Z,1.70
2023-02-19T01:03:13.127Z,1.85
2023-02-19T01:05:41.035Z,2.22
2023-02-19T01:08:07.534Z,1.80
2023-02-19T01:10:34.004Z,1.60
2023-02-19T01:13:00.492Z,1.67
2023-02-19T01:15:27.004Z,1.63
2023-02-19T01:17:53.475Z,2.35
2023-02-19T01:20:19.970Z,1.60
2023-02-19T01:22:46.481Z,1.30
2023-02-19T01:25:12.949Z,1.52
2023-02-19T01:27:39.434Z,1.90
2023-02-19T01:30:06.320Z,1.60
2023-02-19T01:32:32.782Z,1.25
2023-02-19T01:34:59.285Z,1.55
2023-02-19T01:37:25.713Z,1.58
2023-02-19T01:39:52.321Z,1.95
2023-02-19T01:42:18.923Z,1.15
2023-02-19T01:44:45.376Z,1.83
2023-02-19T01:47:12.117Z,1.40
2023-02-19T01:49:50.609Z,1.77
2023-02-19T01:52:29.657Z,1.23
2023-02-19T01:54:56.992Z,2.15
2023-02-19T01:57:26.865Z,1.67
2023-02-19T01:59:57.438Z,1.65
2023-02-19T02:02:24.757Z,1.55
2023-02-19T02:04:52.067Z,0.90
2023-02-19T02:07:18.807Z,1.50
2023-02-19T02:09:45.420Z,2.25
2023-02-19T02:12:12.290Z,2.03
2023-02-19T02:14:43.512Z,1.10
2023-02-19T02:17:25.737Z,1.45
2023-02-19T02:20:10.484Z,1.10
2023-02-19T02:22:55.379Z,1.50
2023-02-19T02:25:43.949Z,1.23
2023-02-19T02:28:32.421Z,1.33
2023-02-19T02:31:13.851Z,1.25
2023-02-19T02:34:02.984Z,1.50
2023-02-19T02:36:37.841Z,1.25
2023-02-19T02:39:09.172Z,2.60
2023-02-19T02:41:45.543Z,1.30
2023-02-19T02:44:12.917Z,1.30
2023-02-19T02:46:44.780Z,1.48
2023-02-19T02:49:22.020Z,1.27
2023-02-19T02:51:53.268Z,1.20
2023-02-19T02:54:27.612Z,1.50
2023-02-19T02:56:56.234Z,1.33
2023-02-19T02:59:26.375Z,1.83
2023-02-19T03:02:02.291Z,1.50
2023-02-19T03:04:47.592Z,1.52
2023-02-19T03:07:14.494Z,1.42
2023-02-19T03:09:42.769Z,1.33
2023-02-19T03:12:19.077Z,1.10
2023-02-19T03:14:56.355Z,1.30
2023-02-19T03:17:33.477Z,1.50
2023-02-19T03:20:05.029Z,1.40
2023-02-19T03:22:37.704Z,1.48
2023-02-19T03:25:11.510Z,1.75
2023-02-19T03:27:40.957Z,1.17
2023-02-19T03:30:21.079Z,1.40
2023-02-19T03:32:59.813Z,0.90
2023-02-19T03:35:53.046Z,1.40
2023-02-19T03:38:22.466Z,1.50
2023-02-19T03:41:09.676Z,1.73
2023-02-19T03:44:02.540Z,1.25
2023-02-19T03:46:53.536Z,1.20
2023-02-19T03:49:34.878Z,1.35
2023-02-19T03:52:16.196Z,1.60
2023-02-19T03:55:13.725Z,1.70
2023-02-19T03:57:54.093Z,1.48
2023-02-19T04:00:24.830Z,1.38
2023-02-19T04:03:11.688Z,1.13
2023-02-19T04:05:45.510Z,1.20
2023-02-19T04:08:17.616Z,1.70
2023-02-19T04:10:51.765Z,1.45
2023-02-19T04:13:24.501Z,1.33
2023-02-19T04:15:54.190Z,1.40
2023-02-19T04:18:26.322Z,1.45
2023-02-19T04:20:53.238Z,1.17
2023-02-19T04:23:25.880Z,1.30
2023-02-19T04:25:56.625Z,1.40
2023-02-19T04:28:23.285Z,1.42
2023-02-19T04:30:49.803Z,1.88
2023-02-19T04:33:16.361Z,1.67
2023-02-19T04:35:42.832Z,1.52
2023-02-19T04:38:09.332Z,1.77
2023-02-19T04:40:35.918Z,1.40
2023-02-19T04:43:02.437Z,1.38
2023-02-19T04:45:28.917Z,1.75
2023-02-19T04:47:57.676Z,1.30
2023-02-19T04:50:24.259Z,1.10
2023-02-19T04:52:51.092Z,1.30
2023-02-19T04:55:17.722Z,1.33
2023-02-19T04:57:44.236Z,1.02
2023-02-19T05:00:11.310Z,1.10
2023-02-19T05:02:37.767Z,1.20
2023-02-19T05:05:04.358Z,2.03
2023-02-19T05:07:30.947Z,1.02
2023-02-19T05:09:57.373Z,1.20
2023-02-19T05:12:23.855Z,1.48
2023-02-19T05:14:50.304Z,1.17
2023-02-19T05:17:16.855Z,1.00
2023-02-19T05:19:43.375Z,0.90
2023-02-19T05:22:09.865Z,1.20
2023-02-19T05:24:36.368Z,1.52
2023-02-19T05:27:02.886Z,1.30
2023-02-19T05:29:30.907Z,1.25
2023-02-19T05:31:57.467Z,1.25
2023-02-19T05:34:23.984Z,1.20
2023-02-19T05:36:50.470Z,1.50
2023-02-19T05:39:17.023Z,1.35
2023-02-19T05:41:43.598Z,1.27
2023-02-19T05:44:11.218Z,1.02
2023-02-19T05:46:37.743Z,1.50
2023-02-19T05:49:04.214Z,1.48
2023-02-19T05:51:30.977Z,1.27
2023-02-19T05:53:57.587Z,1.60
2023-02-19T05:56:38.920Z,1.83
2023-02-19T05:59:16.883Z,1.30
2023-02-19T06:01:43.399Z,1.33
2023-02-19T06:04:13.654Z,1.20
2023-02-19T06:06:41.406Z,1.33
2023-02-19T06:09:08.425Z,1.35
2023-02-19T06:11:35.509Z,0.95
2023-02-19T06:14:02.153Z,1.20
2023-02-19T06:16:28.955Z,1.30
2023-02-19T06:18:55.488Z,1.20
2023-02-19T06:21:21.989Z,1.02
2023-02-19T06:23:48.475Z,1.13
2023-02-19T06:26:21.088Z,1.00
2023-02-19T06:28:49.680Z,0.80
2023-02-19T06:31:17.325Z,0.98
2023-02-19T06:33:44.534Z,1.10
2023-02-19T06:36:17.372Z,0.95
2023-02-19T06:38:44.393Z,0.90
2023-02-19T06:41:12.299Z,1.00
2023-02-19T06:43:39.028Z,0.90
2023-02-19T06:46:06.627Z,0.70
2023-02-19T06:48:34.349Z,0.70
2023-02-19T06:51:01.182Z,0.70
2023-02-19T06:53:27.665Z,1.10
2023-02-19T06:56:31.554Z,1.10
2023-02-19T06:59:00.570Z,0.80
2023-02-19T07:01:28.587Z,0.68
2023-02-19T07:03:55.105Z,0.90
2023-02-19T07:06:23.179Z,0.98
2023-02-19T07:08:50.330Z,0.95
2023-02-19T07:11:17.731Z,0.68
2023-02-19T07:13:44.970Z,0.80
2023-02-19T07:16:13.050Z,1.63
2023-02-19T07:18:40.633Z,0.95
2023-02-19T07:21:12.589Z,0.82
2023-02-19T07:23:40.575Z,0.82
2023-02-19T07:26:16.051Z,0.88
2023-02-19T07:28:44.241Z,0.90
2023-02-19T07:31:12.227Z,0.80
2023-02-19T07:33:39.073Z,1.20
2023-02-19T07:36:08.734Z,1.85
2023-02-19T07:38:37.794Z,0.70
2023-02-19T07:41:05.853Z,1.10
2023-02-19T07:43:34.826Z,0.95
2023-02-19T07:46:08.893Z,1.77
2023-02-19T07:48:43.839Z,1.00
2023-02-19T07:51:22.564Z,0.88
2023-02-19T07:54:09.212Z,1.58
2023-02-19T07:56:55.904Z,1.02
2023-02-19T07:59:42.397Z,1.17
2023-02-19T08:02:28.923Z,0.73
2023-02-19T08:05:15.482Z,0.77
2023-02-19T08:08:02.542Z,0.80
2023-02-19T08:10:49.021Z,1.08
2023-02-19T08:13:17.700Z,0.90
2023-02-19T08:15:44.472Z,0.80
2023-02-19T08:18:11.494Z,1.05
2023-02-19T08:20:38.407Z,0.73
2023-02-19T08:23:05.318Z,1.02
2023-02-19T08:25:32.225Z,1.10
2023-02-19T08:28:00.097Z,1.02
2023-02-19T08:30:28.319Z,0.90
2023-02-19T08:32:56.000Z,0.75
2023-02-19T08:35:22.660Z,0.90
2023-02-19T08:37:49.418Z,0.75
2023-02-19T08:40:16.457Z,1.00
2023-02-19T08:42:43.281Z,1.10
2023-02-19T08:45:09.945Z,0.80
2023-02-19T08:47:36.879Z,1.02
2023-02-19T08:50:05.409Z,0.90
2023-02-19T08:52:32.355Z,0.98
2023-02-19T08:54:59.059Z,0.90
2023-02-19T08:57:26.628Z,1.10
2023-02-19T08:59:53.528Z,1.15
2023-02-19T09:02:20.281Z,0.55
2023-02-19T09:04:46.934Z,0.80
2023-02-19T09:07:13.473Z,0.85
2023-02-19T09:09:40.518Z,1.08
2023-02-19T09:12:08.601Z,1.10
2023-02-19T09:14:35.845Z,1.08
2023-02-19T09:17:04.212Z,0.77
2023-02-19T09:19:32.494Z,1.10
2023-02-19T09:21:59.204Z,1.02
2023-02-19T09:24:26.215Z,1.00
2023-02-19T09:26:54.509Z,1.13
2023-02-19T09:29:24.224Z,1.10
2023-02-19T09:31:50.921Z,0.82
2023-02-19T09:34:17.446Z,0.98
2023-02-19T09:36:43.942Z,0.93
2023-02-19T09:39:10.402Z,0.70
2023-02-19T09:41:45.464Z,1.00
2023-02-19T09:44:17.636Z,1.30
2023-02-19T09:46:47.321Z,1.33
2023-02-19T09:49:31.838Z,1.80
2023-02-19T09:52:03.255Z,0.90
2023-02-19T09:57:01.108Z,1.00
2023-02-19T09:59:41.797Z,1.08
2023-02-19T10:02:17.545Z,1.00
2023-02-19T10:04:45.841Z,1.52
2023-02-19T10:07:18.288Z,1.08
2023-02-19T10:09:53.468Z,1.30
2023-02-19T10:12:29.099Z,1.05
2023-02-19T10:15:05.312Z,1.10
2023-02-19T10:17:32.901Z,1.10
2023-02-19T10:19:59.374Z,0.88
2023-02-19T10:22:25.996Z,0.88
2023-02-19T10:24:55.421Z,1.00
2023-02-19T10:27:22.329Z,1.00
2023-02-19T10:29:49.969Z,1.60
2023-02-19T10:32:22.290Z,1.10
2023-02-19T10:35:09.216Z,1.20
2023-02-19T10:37:43.053Z,1.13
2023-02-19T10:40:18.763Z,1.00
2023-02-19T10:42:55.982Z,0.90
2023-02-19T10:45:33.900Z,1.30
2023-02-19T10:48:01.212Z,1.08
2023-02-19T10:50:31.944Z,1.30
2023-02-19T10:53:00.666Z,1.23
2023-02-19T10:55:33.358Z,1.00
2023-02-19T10:58:23.991Z,1.10
2023-02-19T11:01:12.090Z,1.35
2023-02-19T11:03:38.938Z,1.35
2023-02-19T11:06:08.655Z,1.48
2023-02-19T11:08:49.506Z,1.25
2023-02-19T11:11:26.977Z,1.27
2023-02-19T11:13:56.773Z,1.25
2023-02-19T11:16:36.542Z,1.20
2023-02-19T11:19:03.227Z,1.48
2023-02-19T11:21:30.891Z,1.33
2023-02-19T11:23:57.493Z,1.13
2023-02-19T11:26:26.621Z,1.52
2023-02-19T11:29:00.916Z,1.33
2023-02-19T11:31:32.464Z,1.52
2023-02-19T11:34:22.474Z,1.38
2023-02-19T11:37:08.323Z,1.35
2023-02-19T11:39:35.114Z,1.30
2023-02-19T11:42:21.789Z,1.33
2023-02-19T11:45:17.221Z,1.50
2023-02-19T11:48:11.774Z,1.80
2023-02-19T11:50:47.661Z,2.00
2023-02-19T11:53:26.854Z,1.65
2023-02-19T11:56:05.673Z,1.33
2023-02-19T11:59:04.388Z,1.40
2023-02-19T12:02:08.570Z,1.90
2023-02-19T12:05:03.120Z,1.55
2023-02-19T12:07:50.815Z,1.38
2023-02-19T12:10:33.898Z,1.38
2023-02-19T12:13:13.398Z,1.52
2023-02-19T12:15:46.005Z,1.38
2023-02-19T12:18:27.839Z,1.30
2023-02-19T12:21:10.947Z,1.27
2023-02-19T12:23:58.962Z,1.38
2023-02-19T12:26:50.371Z,1.13
2023-02-19T12:29:44.261Z,1.10
2023-02-19T12:32:20.886Z,1.10
2023-02-19T12:35:26.993Z,1.23
2023-02-19T12:37:56.452Z,1.60
2023-02-19T12:41:10.532Z,1.38
2023-02-19T12:43:42.619Z,1.33
2023-02-19T12:46:25.867Z,1.38
2023-02-19T12:48:58.261Z,1.15
2023-02-19T12:51:48.489Z,1.70
2023-02-19T12:54:24.979Z,1.63
2023-02-19T12:57:10.414Z,1.40
2023-02-19T13:00:00.013Z,1.30
2023-02-19T13:02:53.738Z,1.15
2023-02-19T13:05:25.358Z,1.27
2023-02-19T13:08:04.815Z,1.17
2023-02-19T13:10:50.444Z,1.30
2023-02-19T13:13:31.709Z,1.30
2023-02-19T13:16:05.846Z,1.75
2023-02-19T13:18:41.591Z,1.23
2023-02-19T13:21:08.933Z,1.20
2023-02-19T13:23:42.950Z,1.63
2023-02-19T13:26:21.898Z,0.90
2023-02-19T13:28:57.633Z,0.80
2023-02-19T13:31:55.583Z,1.10
2023-02-19T13:34:28.890Z,1.48
2023-02-19T13:36:56.360Z,1.55
2023-02-19T13:39:23.392Z,1.10
2023-02-19T13:41:52.932Z,1.33
2023-02-19T13:44:28.042Z,1.00
2023-02-19T13:46:54.657Z,0.90
2023-02-19T13:49:27.313Z,0.80
2023-02-19T13:52:24.217Z,1.00
2023-02-19T13:54:50.782Z,1.05
2023-02-19T13:57:23.513Z,0.93
2023-02-19T13:59:51.592Z,1.00
2023-02-19T14:02:21.251Z,1.00
2023-02-19T14:04:53.977Z,1.00
2023-02-19T14:07:32.564Z,1.00
2023-02-19T14:09:59.231Z,1.20
2023-02-19T14:12:37.128Z,1.00
2023-02-19T14:15:49.505Z,1.50
2023-02-19T14:18:42.407Z,1.10
2023-02-19T14:21:23.962Z,1.25
2023-02-19T14:23:53.494Z,1.05
2023-02-19T14:26:20.977Z,1.08
2023-02-19T14:28:49.282Z,1.10
2023-02-19T14:31:22.211Z,1.30
2023-02-19T14:33:57.875Z,1.00
2023-02-19T14:36:39.628Z,1.20
2023-02-19T14:39:11.971Z,1.00
2023-02-19T14:41:42.062Z,1.20
2023-02-19T14:44:17.688Z,1.38
2023-02-19T14:46:55.191Z,1.40
2023-02-19T14:49:27.489Z,0.98
2023-02-19T14:52:02.972Z,1.20
2023-02-19T14:54:48.653Z,1.45
2023-02-19T14:57:20.898Z,1.58
2023-02-19T15:00:01.833Z,1.75
2023-02-19T15:02:30.945Z,2.10
2023-02-19T15:04:58.105Z,1.13
2023-02-19T15:07:28.851Z,1.35
2023-02-19T15:10:00.888Z,1.23
2023-02-19T15:12:32.833Z,1.70
2023-02-19T15:15:02.648Z,1.33
2023-02-19T15:17:32.295Z,1.55
2023-02-19T15:20:04.786Z,1.10
2023-02-19T15:22:32.564Z,1.30
2023-02-19T15:25:03.580Z,1.00
2023-02-19T15:27:30.480Z,1.30
2023-02-19T15:29:56.915Z,1.27
2023-02-19T15:32:25.926Z,1.05
2023-02-19T15:35:00.817Z,1.25
2023-02-19T15:37:33.627Z,1.90
2023-02-19T15:40:06.009Z,1.80
2023-02-19T15:42:35.242Z,1.52
2023-02-19T15:45:16.755Z,1.35
2023-02-19T15:47:50.535Z,1.40
2023-02-19T15:50:25.770Z,1.30
2023-02-19T15:53:27.673Z,1.40
2023-02-19T15:56:03.038Z,1.45
2023-02-19T15:58:36.132Z,1.70
2023-02-19T16:01:07.165Z,1.70
2023-02-19T16:03:35.272Z,2.63
2023-02-19T16:06:16.015Z,1.33
2023-02-19T16:08:45.046Z,1.85
2023-02-19T16:11:23.758Z,1.08
2023-02-19T16:13:51.567Z,1.00
2023-02-19T16:16:35.287Z,1.30
2023-02-19T16:19:02.106Z,1.00
2023-02-19T16:21:28.902Z,1.10
2023-02-19T16:24:07.106Z,1.10
2023-02-19T16:26:44.553Z,1.30
2023-02-19T16:29:23.034Z,1.35
2023-02-19T16:31:51.922Z,1.02
2023-02-19T16:34:28.396Z,1.55
2023-02-19T16:36:54.876Z,1.10
2023-02-19T16:39:21.823Z,1.00
2023-02-19T16:41:48.269Z,1.33
2023-02-19T16:44:20.462Z,1.17
2023-02-19T16:46:51.813Z,1.38
2023-02-19T16:49:18.691Z,1.48
2023-02-19T16:51:46.242Z,1.60
2023-02-19T16:54:12.921Z,3.42
2023-02-19T16:56:39.806Z,2.00
2023-02-19T16:59:06.379Z,2.17
2023-02-19T17:01:34.033Z,4.18
2023-02-19T17:04:04.663Z,2.55
2023-02-19T17:06:31.258Z,2.80
2023-02-19T17:08:57.710Z,1.70
2023-02-19T17:11:24.385Z,1.83
2023-02-19T17:13:51.059Z,2.08
2023-02-19T17:16:20.712Z,2.65
2023-02-19T17:18:47.323Z,1.80
2023-02-19T17:21:17.703Z,2.00
2023-02-19T17:23:44.244Z,2.10
2023-02-19T17:26:15.602Z,2.00
2023-02-19T17:28:42.460Z,2.22
2023-02-19T17:31:11.109Z,1.50
2023-02-19T17:33:38.613Z,1.58
2023-02-19T17:36:05.974Z,1.48
2023-02-19T17:38:32.468Z,1.98
2023-02-19T17:40:59.196Z,1.55
2023-02-19T17:43:25.654Z,2.00
2023-02-19T17:45:52.183Z,2.28
2023-02-19T17:48:18.649Z,1.70
2023-02-19T17:50:45.111Z,1.83
2023-02-19T17:53:11.592Z,1.63
2023-02-19T17:55:38.058Z,1.67
2023-02-19T17:58:04.547Z,1.63
2023-02-19T18:00:31.127Z,1.55
2023-02-19T18:02:57.773Z,2.10
2023-02-19T18:05:24.363Z,1.67
2023-02-19T18:07:51.001Z,2.15
2023-02-19T18:10:19.385Z,2.22
2023-02-19T18:12:45.968Z,2.25
2023-02-19T18:15:21.676Z,1.85
2023-02-19T18:17:48.168Z,2.05
2023-02-19T18:20:17.011Z,1.80
2023-02-19T18:22:43.541Z,2.10
2023-02-19T18:25:10.897Z,2.80
2023-02-19T18:27:37.453Z,2.83
2023-02-19T18:30:05.292Z,2.60
2023-02-19T18:32:31.960Z,3.20
2023-02-19T18:34:59.147Z,3.20
2023-02-19T18:37:26.752Z,3.70
2023-02-19T18:39:53.681Z,3.13
2023-02-19T18:42:21.498Z,2.58
2023-02-19T18:44:49.171Z,2.97
2023-02-19T18:47:17.263Z,2.83
2023-02-19T18:49:47.433Z,3.10
2023-02-19T18:52:14.519Z,2.97
2023-02-19T18:54:41.005Z,2.10
2023-02-19T18:57:07.485Z,3.03
2023-02-19T18:59:34.068Z,2.85
2023-02-19T19:02:00.679Z,2.78
2023-02-19T19:04:27.200Z,2.78
2023-02-19T19:06:53.751Z,2.50
2023-02-19T19:09:20.170Z,3.53
2023-02-19T19:11:46.648Z,2.80
2023-02-19T19:14:13.943Z,3.13
2023-02-19T19:16:40.482Z,3.15
2023-02-19T19:19:06.956Z,3.25
2023-02-19T19:21:33.602Z,3.83
2023-02-19T19:24:00.078Z,3.63
2023-02-19T19:26:26.695Z,3.28
2023-02-19T19:28:53.300Z,3.30
2023-02-19T19:31:20.990Z,3.33
2023-02-19T19:33:48.733Z,3.70
2023-02-19T19:36:19.897Z,3.35
2023-02-19T19:38:47.108Z,2.30
2023-02-19T19:41:15.211Z,2.97
2023-02-19T19:43:41.802Z,3.58
2023-02-19T19:46:08.474Z,2.83
2023-02-19T19:48:35.022Z,4.35
2023-02-19T19:51:01.512Z,4.05
2023-02-19T19:53:27.993Z,3.47
2023-02-19T19:55:54.505Z,2.38
2023-02-19T19:58:20.995Z,1.98
2023-02-19T20:00:47.477Z,2.40
2023-02-19T20:03:13.966Z,2.85
2023-02-19T20:05:40.476Z,3.00
2023-02-19T20:08:06.937Z,2.80
2023-02-19T20:10:33.460Z,2.88
2023-02-19T20:12:59.942Z,2.70
2023-02-19T20:15:26.503Z,2.17
2023-02-19T20:17:52.996Z,2.63
2023-02-19T20:20:20.818Z,2.00
2023-02-19T20:22:47.316Z,2.28
2023-02-19T20:25:13.784Z,1.80
2023-02-19T20:27:40.278Z,2.20
2023-02-19T20:30:09.779Z,2.08
2023-02-19T20:32:37.718Z,2.00
2023-02-19T20:35:04.382Z,1.90
2023-02-19T20:37:30.911Z,2.28
2023-02-19T20:39:57.406Z,2.00
2023-02-19T20:42:23.977Z,2.42
2023-02-19T20:44:50.511Z,2.40
2023-02-19T20:47:17.087Z,2.38
2023-02-19T20:49:45.380Z,2.38
2023-02-19T20:52:15.198Z,2.30
2023-02-19T20:54:41.850Z,2.50
2023-02-19T20:57:09.128Z,3.60
2023-02-19T20:59:35.966Z,2.70
2023-02-19T21:02:04.272Z,2.40
2023-02-19T21:04:31.274Z,2.80
2023-02-19T21:06:57.897Z,2.60
2023-02-19T21:09:24.384Z,2.67
2023-02-19T21:11:51.445Z,2.67
2023-02-19T21:14:18.024Z,2.45
2023-02-19T21:16:44.918Z,2.50
2023-02-19T21:19:11.663Z,2.50
2023-02-19T21:21:38.209Z,2.55
2023-02-19T21:24:04.794Z,2.30
2023-02-19T21:26:39.311Z,2.45
2023-02-19T21:29:07.372Z,3.40
2023-02-19T21:31:44.064Z,2.40
2023-02-19T21:34:12.644Z,2.70
2023-02-19T21:36:39.447Z,2.75
2023-02-19T21:39:07.751Z,3.13
2023-02-19T21:41:34.420Z,2.47
2023-02-19T21:44:01.036Z,2.80
2023-02-19T21:46:27.650Z,2.80
2023-02-19T21:48:56.037Z,2.70
2023-02-19T21:51:29.459Z,3.33
2023-02-19T21:53:56.022Z,2.60
2023-02-19T21:56:31.151Z,3.35
2023-02-19T21:58:57.965Z,2.60
2023-02-19T22:01:29.546Z,3.35
2023-02-19T22:06:29.013Z,2.40
2023-02-19T22:08:56.353Z,2.70
2023-02-19T22:11:22.851Z,2.40
2023-02-19T22:13:49.721Z,2.70
2023-02-19T22:16:17.385Z,2.53
2023-02-19T22:18:52.987Z,2.85
2023-02-19T22:21:20.732Z,3.05
2023-02-19T22:23:48.276Z,3.40
2023-02-19T22:26:24.317Z,3.08
2023-02-19T22:28:51.563Z,4.70
2023-02-19T22:31:20.194Z,2.88
2023-02-19T22:33:46.758Z,2.42
2023-02-19T22:36:17.723Z,3.08
2023-02-19T22:38:44.552Z,2.28
2023-02-19T22:41:11.584Z,2.65
2023-02-19T22:43:38.788Z,3.05
2023-02-19T22:46:10.318Z,3.70
2023-02-19T22:51:03.510Z,2.85
2023-02-19T22:53:30.034Z,3.22
2023-02-19T22:55:56.515Z,3.80
2023-02-19T22:58:23.015Z,3.30
2023-02-19T23:00:49.490Z,3.53
2023-02-19T23:03:16.022Z,3.67
2023-02-19T23:05:42.567Z,4.72
2023-02-19T23:08:09.025Z,3.35
2023-02-19T23:10:35.486Z,3.90
2023-02-19T23:13:02.014Z,3.25
2023-02-19T23:15:28.504Z,3.38
2023-02-19T23:17:55.030Z,3.80
2023-02-19T23:20:21.487Z,3.75
2023-02-19T23:22:47.993Z,4.18
2023-02-19T23:25:14.486Z,3.80
2023-02-19T23:27:41.250Z,4.05
2023-02-19T23:30:08.387Z,3.90
2023-02-19T23:32:35.002Z,3.65
2023-02-19T23:35:01.493Z,3.70
2023-02-19T23:37:27.980Z,4.13
2023-02-19T23:39:54.430Z,3.92
2023-02-19T23:42:20.891Z,3.90
2023-02-19T23:44:47.421Z,4.10
2023-02-19T23:47:14.174Z,3.88
2023-02-19T23:49:40.992Z,3.97
2023-02-19T23:52:07.761Z,4.00
2023-02-19T23:54:34.258Z,3.65
2023-02-19T23:57:00.774Z,3.92
2023-02-19T23:59:27.249Z,5.20
